createdAt,value
2023-02-26T00:01:04.649Z,-0.76
2023-02-26T00:03:32.768Z,-0.75
2023-02-26T00:06:01.996Z,-0.90
2023-02-26T00:08:31.375Z,-0.92
2023-02-26T00:11:01.964Z,-0.97
2023-02-26T00:13:30.510Z,-0.88
2023-02-26T00:16:01.300Z,-0.78
2023-02-26T00:18:31.380Z,-0.83
2023-02-26T00:21:00.046Z,-0.67
2023-02-26T00:23:28.416Z,-0.64
2023-02-26T00:25:56.345Z,-0.65
2023-02-26T00:28:25.129Z,-0.56
2023-02-26T00:30:54.361Z,-0.61
2023-02-26T00:33:22.903Z,-0.60
2023-02-26T00:35:52.874Z,-0.53
2023-02-26T00:38:20.841Z,-0.52
2023-02-26T00:40:50.186Z,-0.48
2023-02-26T00:43:19.421Z,-0.51
2023-02-26T00:45:53.059Z,-0.48
2023-02-26T00:48:31.443Z,-0.53
2023-02-26T00:51:04.423Z,-0.60
2023-02-26T00:53:35.158Z,-0.55
2023-02-26T00:56:03.636Z,-0.59
2023-02-26T00:58:31.656Z,-0.54
2023-02-26T01:01:01.250Z,-0.60
2023-02-26T01:03:29.818Z,-0.69
2023-02-26T01:05:58.049Z,-0.71
2023-02-26T01:08:30.504Z,-0.82
2023-02-26T01:10:59.064Z,-0.68
2023-02-26T01:13:27.660Z,-0.65
2023-02-26T01:15:57.229Z,-0.78
2023-02-26T01:18:27.009Z,-0.85
2023-02-26T01:20:57.642Z,-0.71
2023-02-26T01:23:28.209Z,-0.84
2023-02-26T01:25:57.885Z,-0.93
2023-02-26T01:28:26.712Z,-0.89
2023-02-26T01:30:55.454Z,-0.81
2023-02-26T01:33:26.069Z,-0.84
2023-02-26T01:35:55.235Z,-0.93
2023-02-26T01:38:28.908Z,-0.81
2023-02-26T01:41:09.079Z,-0.71
2023-02-26T01:43:39.009Z,-0.81
2023-02-26T01:46:07.842Z,-0.88
2023-02-26T01:48:39.869Z,-0.85
2023-02-26T01:51:07.868Z,-1.03
2023-02-26T01:53:37.212Z,-1.11
2023-02-26T01:56:08.168Z,-1.04
2023-02-26T01:58:36.835Z,-1.00
2023-02-26T02:01:05.019Z,-1.06
2023-02-26T02:03:34.684Z,-1.04
2023-02-26T02:06:04.760Z,-1.08
2023-02-26T02:08:35.513Z,-1.13
2023-02-26T02:11:05.092Z,-1.27
2023-02-26T02:13:39.327Z,-1.22
2023-02-26T02:16:13.610Z,-1.33
2023-02-26T02:18:45.444Z,-1.42
2023-02-26T02:21:45.432Z,-1.53
2023-02-26T02:24:14.242Z,-1.61
2023-02-26T02:27:02.824Z,-1.53
2023-02-26T02:29:52.632Z,-1.68
2023-02-26T02:32:22.988Z,-1.67
2023-02-26T02:34:52.789Z,-1.69
2023-02-26T02:37:22.889Z,-1.75
2023-02-26T02:39:52.012Z,-1.78
2023-02-26T02:42:23.446Z,-1.76
2023-02-26T02:44:53.437Z,-1.82
2023-02-26T02:47:23.180Z,-1.88
2023-02-26T02:49:52.840Z,-1.84
2023-02-26T02:52:23.100Z,-1.85
2023-02-26T02:54:52.688Z,-1.98
2023-02-26T02:57:21.444Z,-1.95
2023-02-26T02:59:50.517Z,-1.97
2023-02-26T03:02:20.881Z,-1.93
2023-02-26T03:04:50.308Z,-2.06
2023-02-26T03:07:18.212Z,-1.97
2023-02-26T03:09:46.531Z,-2.01
2023-02-26T03:12:14.549Z,-2.01
2023-02-26T03:14:42.966Z,-2.02
2023-02-26T03:17:19.769Z,-2.04
2023-02-26T03:19:57.642Z,-2.00
2023-02-26T03:22:29.625Z,-1.97
2023-02-26T03:24:59.462Z,-1.95
2023-02-26T03:27:30.527Z,-1.92
2023-02-26T03:30:00.240Z,-2.07
2023-02-26T03:32:30.515Z,-2.05
2023-02-26T03:35:03.900Z,-2.04
2023-02-26T03:37:34.796Z,-1.96
2023-02-26T03:40:05.699Z,-1.89
2023-02-26T03:42:36.479Z,-1.85
2023-02-26T03:45:06.791Z,-1.88
2023-02-26T03:47:34.989Z,-1.92
2023-02-26T03:50:06.546Z,-1.91
2023-02-26T03:52:37.213Z,-1.86
2023-02-26T03:55:06.818Z,-1.95
2023-02-26T03:57:34.835Z,-1.88
2023-02-26T04:00:02.861Z,-2.02
2023-02-26T04:02:32.809Z,-1.99
2023-02-26T04:05:04.992Z,-1.96
2023-02-26T04:07:33.326Z,-2.00
2023-02-26T04:10:01.290Z,-2.04
2023-02-26T04:12:29.660Z,-2.04
2023-02-26T04:14:58.026Z,-2.04
2023-02-26T04:17:26.245Z,-2.17
2023-02-26T04:19:54.172Z,-1.99
2023-02-26T04:22:23.793Z,-2.04
2023-02-26T04:24:51.692Z,-2.06
2023-02-26T04:27:19.754Z,-2.11
2023-02-26T04:29:48.542Z,-2.05
2023-02-26T04:32:16.554Z,-2.14
2023-02-26T04:34:44.515Z,-2.22
2023-02-26T04:37:12.742Z,-2.27
2023-02-26T04:39:42.052Z,-2.23
2023-02-26T04:42:10.290Z,-2.30
2023-02-26T04:44:38.207Z,-2.29
2023-02-26T04:47:06.171Z,-2.22
2023-02-26T04:49:34.725Z,-2.28
2023-02-26T04:52:02.873Z,-2.30
2023-02-26T04:54:31.885Z,-2.18
2023-02-26T04:57:01.503Z,-2.18
2023-02-26T04:59:29.441Z,-2.04
2023-02-26T05:01:57.681Z,-2.10
2023-02-26T05:04:25.891Z,-2.21
2023-02-26T05:06:54.423Z,-2.23
2023-02-26T05:09:22.425Z,-2.11
2023-02-26T05:11:50.673Z,-2.14
2023-02-26T05:14:20.225Z,-2.22
2023-02-26T05:16:48.450Z,-2.32
2023-02-26T05:19:16.870Z,-2.30
2023-02-26T05:21:44.970Z,-2.27
2023-02-26T05:24:12.948Z,-2.29
2023-02-26T05:26:40.886Z,-2.39
2023-02-26T05:29:09.008Z,-2.31
2023-02-26T05:31:39.004Z,-2.47
2023-02-26T05:34:07.009Z,-2.44
2023-02-26T05:36:34.963Z,-2.48
2023-02-26T05:39:02.998Z,-2.67
2023-02-26T05:41:30.898Z,-2.55
2023-02-26T05:43:59.151Z,-2.53
2023-02-26T05:46:27.946Z,-2.64
2023-02-26T05:48:57.477Z,-2.67
2023-02-26T05:51:25.518Z,-2.74
2023-02-26T05:53:53.489Z,-2.71
2023-02-26T05:56:21.759Z,-2.83
2023-02-26T05:58:49.785Z,-2.81
2023-02-26T06:01:18.219Z,-2.81
2023-02-26T06:03:46.280Z,-2.82
2023-02-26T06:06:18.138Z,-2.79
2023-02-26T06:08:46.613Z,-2.84
2023-02-26T06:11:14.583Z,-2.72
2023-02-26T06:13:42.544Z,-2.75
2023-02-26T06:16:10.544Z,-2.72
2023-02-26T06:18:38.570Z,-2.72
2023-02-26T06:21:07.241Z,-2.74
2023-02-26T06:23:36.581Z,-2.61
2023-02-26T06:26:04.791Z,-2.60
2023-02-26T06:28:32.820Z,-2.59
2023-02-26T06:31:01.020Z,-2.68
2023-02-26T06:33:29.382Z,-2.53
2023-02-26T06:35:58.046Z,-2.60
2023-02-26T06:38:25.958Z,-2.64
2023-02-26T06:40:55.545Z,-2.57
2023-02-26T06:43:23.501Z,-2.57
2023-02-26T06:45:51.782Z,-2.63
2023-02-26T06:48:20.036Z,-2.57
2023-02-26T06:50:48.168Z,-2.61
2023-02-26T06:53:16.098Z,-2.58
2023-02-26T06:55:45.226Z,-2.58
2023-02-26T06:58:14.675Z,-2.61
2023-02-26T07:00:42.641Z,-2.60
2023-02-26T07:03:11.910Z,-2.56
2023-02-26T07:05:40.140Z,-2.56
2023-02-26T07:08:08.210Z,-2.59
2023-02-26T07:10:36.623Z,-2.65
2023-02-26T07:13:04.873Z,-2.70
2023-02-26T07:15:34.446Z,-2.53
2023-02-26T07:18:02.604Z,-2.50
2023-02-26T07:20:30.705Z,-2.50
2023-02-26T07:22:58.969Z,-2.59
2023-02-26T07:25:26.854Z,-2.42
2023-02-26T07:27:55.120Z,-2.49
2023-02-26T07:30:23.431Z,-2.41
2023-02-26T07:32:52.794Z,-2.39
2023-02-26T07:35:21.319Z,-2.40
2023-02-26T07:37:49.379Z,-2.40
2023-02-26T07:40:17.397Z,-2.31
2023-02-26T07:42:45.670Z,-2.29
2023-02-26T07:45:13.596Z,-2.27
2023-02-26T07:47:41.580Z,-2.23
2023-02-26T07:50:12.752Z,-2.03
2023-02-26T07:52:41.619Z,-2.07
2023-02-26T07:55:10.756Z,-1.94
2023-02-26T07:57:38.878Z,-2.05
2023-02-26T08:00:09.793Z,-1.96
2023-02-26T08:02:37.807Z,-1.98
2023-02-26T08:05:06.203Z,-2.02
2023-02-26T08:07:35.481Z,-2.01
2023-02-26T08:10:04.467Z,-1.92
2023-02-26T08:12:33.098Z,-1.78
2023-02-26T08:15:01.485Z,-1.72
2023-02-26T08:17:29.406Z,-1.76
2023-02-26T08:19:57.350Z,-1.62
2023-02-26T08:22:25.271Z,-1.57
2023-02-26T08:24:54.643Z,-1.63
2023-02-26T08:27:22.630Z,-1.62
2023-02-26T08:29:51.296Z,-1.52
2023-02-26T08:32:19.941Z,-1.39
2023-02-26T08:34:48.199Z,-1.35
2023-02-26T08:37:18.799Z,-1.51
2023-02-26T08:39:46.744Z,-1.43
2023-02-26T08:42:21.528Z,-1.34
2023-02-26T08:44:52.725Z,-1.38
2023-02-26T08:47:28.526Z,-1.21
2023-02-26T08:49:57.369Z,-1.17
2023-02-26T08:52:25.897Z,-1.12
2023-02-26T08:54:53.934Z,-1.21
2023-02-26T08:57:23.224Z,-1.07
2023-02-26T08:59:51.674Z,-1.06
2023-02-26T09:02:19.613Z,-1.02
2023-02-26T09:04:47.562Z,-1.02
2023-02-26T09:07:15.795Z,-1.00
2023-02-26T09:09:43.737Z,-0.88
2023-02-26T09:12:11.640Z,-0.80
2023-02-26T09:14:40.971Z,-0.85
2023-02-26T09:17:08.867Z,-0.72
2023-02-26T09:19:36.814Z,-0.74
2023-02-26T09:22:06.270Z,-0.62
2023-02-26T09:24:35.721Z,-0.49
2023-02-26T09:27:03.952Z,-0.49
2023-02-26T09:29:31.896Z,-0.38
2023-02-26T09:32:02.481Z,-0.17
2023-02-26T09:34:30.500Z,-0.13
2023-02-26T09:36:58.470Z,0.22
2023-02-26T09:39:26.506Z,0.12
2023-02-26T09:41:55.496Z,0.11
2023-02-26T09:44:24.645Z,0.07
2023-02-26T09:46:56.250Z,0.26
2023-02-26T09:49:30.206Z,0.28
2023-02-26T09:51:59.932Z,0.36
2023-02-26T09:54:30.248Z,0.37
2023-02-26T09:56:59.754Z,0.24
2023-02-26T09:59:28.617Z,0.42
2023-02-26T10:02:00.150Z,0.56
2023-02-26T10:04:39.070Z,0.40
2023-02-26T10:07:13.400Z,0.74
2023-02-26T10:09:58.289Z,0.78
2023-02-26T10:12:26.928Z,0.75
2023-02-26T10:14:56.982Z,1.00
2023-02-26T10:17:30.038Z,1.04
2023-02-26T10:20:01.726Z,0.95
2023-02-26T10:22:32.054Z,1.02
2023-02-26T10:25:03.549Z,1.00
2023-02-26T10:27:43.051Z,1.25
2023-02-26T10:30:15.574Z,1.54
2023-02-26T10:32:47.334Z,1.94
2023-02-26T10:35:17.954Z,1.40
2023-02-26T10:37:48.836Z,1.28
2023-02-26T10:40:19.234Z,1.09
2023-02-26T10:42:51.971Z,0.98
2023-02-26T10:45:39.002Z,0.97
2023-02-26T10:48:15.786Z,1.24
2023-02-26T10:50:49.063Z,1.42
2023-02-26T10:53:17.150Z,1.55
2023-02-26T10:55:47.294Z,1.53
2023-02-26T10:58:16.231Z,1.55
2023-02-26T11:00:47.360Z,1.54
2023-02-26T11:03:17.785Z,1.39
2023-02-26T11:05:48.213Z,1.00
2023-02-26T11:08:20.664Z,1.06
2023-02-26T11:10:50.487Z,0.81
2023-02-26T11:13:18.500Z,0.76
2023-02-26T11:15:48.048Z,0.78
2023-02-26T11:18:18.380Z,0.93
2023-02-26T11:20:48.293Z,1.07
2023-02-26T11:23:17.588Z,0.90
2023-02-26T11:25:45.670Z,0.91
2023-02-26T11:28:22.002Z,1.01
2023-02-26T11:30:54.074Z,0.80
2023-02-26T11:33:24.373Z,0.65
2023-02-26T11:35:54.428Z,0.75
2023-02-26T11:38:24.293Z,0.86
2023-02-26T11:40:54.259Z,0.73
2023-02-26T11:43:22.676Z,0.70
2023-02-26T11:45:53.896Z,0.47
2023-02-26T11:48:23.968Z,0.62
2023-02-26T11:50:55.178Z,0.68
2023-02-26T11:53:28.762Z,0.57
2023-02-26T11:56:02.089Z,0.73
2023-02-26T11:58:35.665Z,0.67
2023-02-26T12:01:04.203Z,0.88
2023-02-26T12:03:34.302Z,0.98
2023-02-26T12:06:04.955Z,1.11
2023-02-26T12:08:39.031Z,1.31
2023-02-26T12:11:13.750Z,1.55
2023-02-26T12:13:44.820Z,1.79
2023-02-26T12:16:30.331Z,1.99
2023-02-26T12:19:02.680Z,2.14
2023-02-26T12:22:03.148Z,2.29
2023-02-26T12:24:42.557Z,2.22
2023-02-26T12:27:15.042Z,2.33
2023-02-26T12:29:51.980Z,2.52
2023-02-26T12:32:32.226Z,2.41
2023-02-26T12:35:35.332Z,2.55
2023-02-26T12:38:15.125Z,2.55
2023-02-26T12:40:57.766Z,2.35
2023-02-26T12:43:29.878Z,2.50
2023-02-26T12:46:03.889Z,2.49
2023-02-26T12:49:04.746Z,2.41
2023-02-26T12:51:42.881Z,2.49
2023-02-26T12:54:30.107Z,2.27
2023-02-26T12:57:05.968Z,2.13
2023-02-26T12:59:42.226Z,2.41
2023-02-26T13:02:36.756Z,2.39
2023-02-26T13:05:16.082Z,2.19
2023-02-26T13:07:55.895Z,2.51
2023-02-26T13:10:36.438Z,2.63
2023-02-26T13:13:17.756Z,2.66
2023-02-26T13:15:55.043Z,2.85
2023-02-26T13:18:26.932Z,2.66
2023-02-26T13:20:58.429Z,2.77
2023-02-26T13:23:26.859Z,2.78
2023-02-26T13:25:57.584Z,2.84
2023-02-26T13:28:28.262Z,3.07
2023-02-26T13:30:57.202Z,2.83
2023-02-26T13:33:26.879Z,2.77
2023-02-26T13:35:54.997Z,2.80
2023-02-26T13:38:25.334Z,2.73
2023-02-26T13:41:01.606Z,2.42
2023-02-26T13:43:54.122Z,2.81
2023-02-26T13:46:31.644Z,2.61
2023-02-26T13:49:03.274Z,2.35
2023-02-26T13:51:34.662Z,2.41
2023-02-26T13:54:04.425Z,2.37
2023-02-26T13:56:50.417Z,2.45
2023-02-26T13:59:49.362Z,2.47
2023-02-26T14:02:54.925Z,2.57
2023-02-26T14:05:57.021Z,2.39
2023-02-26T14:08:40.345Z,2.60
2023-02-26T14:11:29.212Z,2.36
2023-02-26T14:14:08.223Z,2.51
2023-02-26T14:16:36.476Z,2.45
2023-02-26T14:19:05.547Z,2.42
2023-02-26T14:21:38.500Z,2.40
2023-02-26T14:24:12.850Z,2.64
2023-02-26T14:26:40.774Z,2.79
2023-02-26T14:29:23.644Z,2.78
2023-02-26T14:32:07.759Z,2.32
2023-02-26T14:34:37.364Z,2.20
2023-02-26T14:37:08.218Z,2.26
2023-02-26T14:39:38.091Z,2.34
2023-02-26T14:42:07.936Z,2.22
2023-02-26T14:44:39.842Z,2.47
2023-02-26T14:47:07.904Z,2.50
2023-02-26T14:49:37.798Z,2.35
2023-02-26T14:52:35.931Z,2.19
2023-02-26T14:55:25.018Z,2.08
2023-02-26T14:57:57.893Z,2.31
2023-02-26T15:00:34.348Z,2.21
2023-02-26T15:03:34.327Z,2.21
2023-02-26T15:06:09.818Z,2.33
2023-02-26T15:08:48.874Z,2.29
2023-02-26T15:11:28.720Z,2.21
2023-02-26T15:14:16.625Z,2.22
2023-02-26T15:16:53.573Z,2.32
2023-02-26T15:19:29.803Z,2.12
2023-02-26T15:22:08.039Z,1.95
2023-02-26T15:24:36.601Z,1.91
2023-02-26T15:27:06.448Z,1.80
2023-02-26T15:29:37.506Z,1.67
2023-02-26T15:32:16.149Z,1.69
2023-02-26T15:34:47.193Z,1.70
2023-02-26T15:37:21.705Z,1.78
2023-02-26T15:39:50.478Z,1.75
2023-02-26T15:42:19.408Z,1.57
2023-02-26T15:44:56.822Z,1.60
2023-02-26T15:47:28.566Z,1.54
2023-02-26T15:49:56.633Z,1.43
2023-02-26T15:52:26.123Z,1.48
2023-02-26T15:54:56.058Z,1.53
2023-02-26T15:57:25.055Z,1.52
2023-02-26T15:59:54.120Z,1.55
2023-02-26T16:02:22.846Z,1.48
2023-02-26T16:04:53.124Z,1.44
2023-02-26T16:07:21.675Z,1.47
2023-02-26T16:09:51.447Z,1.39
2023-02-26T16:12:20.491Z,1.41
2023-02-26T16:14:50.315Z,1.44
2023-02-26T16:17:22.157Z,1.24
2023-02-26T16:19:51.672Z,1.22
2023-02-26T16:22:22.449Z,1.25
2023-02-26T16:24:53.914Z,1.10
2023-02-26T16:27:22.233Z,1.17
2023-02-26T16:29:52.805Z,1.14
2023-02-26T16:32:21.110Z,1.18
2023-02-26T16:34:53.447Z,1.13
2023-02-26T16:37:27.416Z,1.15
2023-02-26T16:39:57.548Z,1.02
2023-02-26T16:42:34.251Z,1.01
2023-02-26T16:45:03.805Z,1.02
2023-02-26T16:47:32.408Z,0.94
2023-02-26T16:50:01.739Z,0.99
2023-02-26T16:52:29.607Z,0.96
2023-02-26T16:55:00.039Z,0.85
2023-02-26T16:57:32.986Z,0.88
2023-02-26T17:00:02.680Z,0.88
2023-02-26T17:02:33.023Z,0.87
2023-02-26T17:05:03.410Z,0.83
2023-02-26T17:07:36.112Z,0.78
2023-02-26T17:10:19.625Z,0.70
2023-02-26T17:12:49.306Z,0.78
2023-02-26T17:15:20.926Z,0.59
2023-02-26T17:17:49.292Z,0.56
2023-02-26T17:20:19.062Z,0.66
2023-02-26T17:22:47.278Z,0.51
2023-02-26T17:25:16.722Z,0.46
2023-02-26T17:27:44.774Z,0.50
2023-02-26T17:30:16.118Z,0.38
2023-02-26T17:32:44.222Z,0.38
2023-02-26T17:35:13.921Z,0.29
2023-02-26T17:37:43.548Z,0.35
2023-02-26T17:40:18.634Z,0.32
2023-02-26T17:42:46.639Z,0.34
2023-02-26T17:45:15.608Z,0.37
2023-02-26T17:47:43.573Z,0.40
2023-02-26T17:50:29.352Z,0.31
2023-02-26T17:52:59.182Z,0.33
2023-02-26T17:55:27.099Z,0.25
2023-02-26T17:57:55.162Z,0.21
2023-02-26T18:00:23.353Z,0.27
2023-02-26T18:02:52.015Z,0.31
2023-02-26T18:05:20.391Z,0.23
2023-02-26T18:07:48.749Z,0.17
2023-02-26T18:10:20.319Z,0.17
2023-02-26T18:12:48.242Z,0.18
2023-02-26T18:15:16.287Z,0.19
2023-02-26T18:17:44.284Z,0.23
2023-02-26T18:20:17.550Z,0.20
2023-02-26T18:22:47.879Z,0.14
2023-02-26T18:25:16.289Z,0.14
2023-02-26T18:27:45.874Z,0.03
2023-02-26T18:30:19.177Z,0.02
2023-02-26T18:32:47.188Z,0.15
2023-02-26T18:35:17.754Z,0.06
2023-02-26T18:37:46.769Z,0.09
2023-02-26T18:43:17.447Z,0.02
2023-02-26T18:45:46.198Z,0.03
2023-02-26T18:48:15.949Z,-0.02
2023-02-26T18:50:45.409Z,0.05
2023-02-26T18:53:13.532Z,-0.04
2023-02-26T18:55:41.505Z,-0.04
2023-02-26T18:58:09.412Z,0.05
2023-02-26T19:00:39.033Z,-0.03
2023-02-26T19:03:09.321Z,-0.08
2023-02-26T19:05:37.757Z,0.04
2023-02-26T19:08:05.904Z,0.02
2023-02-26T19:10:34.592Z,-0.01
2023-02-26T19:13:02.561Z,0.12
2023-02-26T19:15:31.122Z,0.05
2023-02-26T19:18:00.500Z,0.07
2023-02-26T19:20:28.523Z,0.14
2023-02-26T19:22:56.761Z,0.30
2023-02-26T19:25:27.061Z,0.36
2023-02-26T19:27:55.711Z,0.26
2023-02-26T19:30:24.309Z,0.32
2023-02-26T19:32:53.246Z,0.35
2023-02-26T19:35:22.812Z,0.37
2023-02-26T19:37:51.358Z,0.42
2023-02-26T19:40:19.922Z,0.45
2023-02-26T19:42:48.090Z,0.50
2023-02-26T19:45:17.232Z,0.52
2023-02-26T19:47:45.405Z,0.50
2023-02-26T19:50:15.145Z,0.40
2023-02-26T19:52:44.862Z,0.49
2023-02-26T19:55:14.478Z,0.46
2023-02-26T19:57:42.502Z,0.51
2023-02-26T20:00:12.463Z,0.39
2023-02-26T20:02:40.476Z,0.50
2023-02-26T20:05:11.597Z,0.52
2023-02-26T20:07:39.841Z,0.52
2023-02-26T20:10:11.012Z,0.56
2023-02-26T20:12:38.996Z,0.56
2023-02-26T20:15:08.316Z,0.49
2023-02-26T20:17:36.355Z,0.45
2023-02-26T20:20:04.462Z,0.47
2023-02-26T20:22:33.050Z,0.41
2023-02-26T20:25:01.061Z,0.35
2023-02-26T20:27:30.441Z,0.37
2023-02-26T20:29:58.402Z,0.28
2023-02-26T20:32:26.684Z,0.26
2023-02-26T20:34:54.660Z,0.30
2023-02-26T20:37:22.665Z,0.20
2023-02-26T20:39:51.248Z,0.14
2023-02-26T20:42:19.436Z,0.17
2023-02-26T20:44:48.850Z,0.10
2023-02-26T20:47:16.892Z,0.18
2023-02-26T20:49:44.922Z,0.06
2023-02-26T20:52:12.885Z,0.15
2023-02-26T20:54:41.066Z,0.03
2023-02-26T20:57:09.053Z,-0.06
2023-02-26T20:59:37.162Z,-0.11
2023-02-26T21:02:06.861Z,-0.02
2023-02-26T21:04:34.830Z,-0.17
2023-02-26T21:07:17.671Z,-0.03
2023-02-26T21:09:47.953Z,-0.19
2023-02-26T21:12:16.438Z,-0.12
2023-02-26T21:14:44.363Z,-0.22
2023-02-26T21:17:13.709Z,-0.25
2023-02-26T21:19:42.062Z,-0.15
2023-02-26T21:22:10.179Z,-0.01
2023-02-26T21:24:38.062Z,-0.18
2023-02-26T21:27:06.057Z,-0.09
2023-02-26T21:29:34.411Z,-0.16
2023-02-26T21:32:03.745Z,-0.06
2023-02-26T21:34:34.902Z,-0.10
2023-02-26T21:37:03.077Z,-0.19
2023-02-26T21:39:32.361Z,-0.25
2023-02-26T21:42:00.525Z,-0.20
2023-02-26T21:44:28.670Z,-0.25
2023-02-26T21:46:57.364Z,-0.02
2023-02-26T21:49:25.535Z,-0.15
2023-02-26T21:51:54.876Z,-0.09
2023-02-26T21:54:23.341Z,-0.10
2023-02-26T21:56:51.844Z,-0.08
2023-02-26T21:59:19.898Z,0.03
2023-02-26T22:01:48.015Z,0.19
2023-02-26T22:04:15.930Z,0.14
2023-02-26T22:06:44.193Z,0.19
2023-02-26T22:09:13.606Z,0.09
2023-02-26T22:11:41.873Z,0.12
2023-02-26T22:14:09.773Z,0.18
2023-02-26T22:16:38.145Z,0.18
2023-02-26T22:19:06.091Z,0.08
2023-02-26T22:21:34.130Z,0.02
2023-02-26T22:24:03.750Z,0.12
2023-02-26T22:26:33.254Z,-0.12
2023-02-26T22:29:01.194Z,-0.09
2023-02-26T22:31:29.911Z,-0.10
2023-02-26T22:33:58.328Z,-0.16
2023-02-26T22:36:27.581Z,0.06
2023-02-26T22:38:56.619Z,0.00
2023-02-26T22:41:24.598Z,-0.11
2023-02-26T22:43:56.722Z,-0.02
2023-02-26T22:46:28.444Z,-0.18
2023-02-26T22:48:56.665Z,-0.32
2023-02-26T22:51:25.225Z,-0.28
2023-02-26T22:53:53.612Z,-0.35
2023-02-26T22:56:21.580Z,-0.46
2023-02-26T22:58:50.164Z,-0.37
2023-02-26T23:01:20.316Z,-0.42
2023-02-26T23:03:48.274Z,-0.54
2023-02-26T23:06:16.518Z,-0.48
2023-02-26T23:08:44.859Z,-0.32
2023-02-26T23:11:13.022Z,-0.38
2023-02-26T23:13:41.491Z,-0.45
2023-02-26T23:16:10.851Z,-0.45
2023-02-26T23:18:40.250Z,-0.35
2023-02-26T23:21:08.818Z,-0.46
2023-02-26T23:23:37.208Z,-0.51
2023-02-26T23:26:05.629Z,-0.54
2023-02-26T23:28:33.994Z,-0.55
2023-02-26T23:31:02.500Z,-0.44
2023-02-26T23:33:31.294Z,-0.60
2023-02-26T23:36:00.662Z,-0.66
2023-02-26T23:38:28.925Z,-0.68
2023-02-26T23:40:57.944Z,-0.70
2023-02-26T23:43:26.107Z,-0.71
2023-02-26T23:45:54.074Z,-0.82
2023-02-26T23:48:24.692Z,-0.76
2023-02-26T23:50:53.055Z,-0.91
2023-02-26T23:53:22.410Z,-0.89
2023-02-26T23:55:52.506Z,-0.86
2023-02-26T23:58:20.846Z,-0.84
